Eleanor, West Virginia
Current Conditions -  °F | °C
As of 9:54 AM on Sunday 21 Dec 2014 (Local Time) from KCRW Reporting Station
Few Clouds Few Clouds  
Wind Chill: 33°   Ceiling: Unl
Heat Index: 33°   Visibility: 10mi
Dew Point: 27°   Wind: 3mph
Humidity: 78%   Direction: 40°NE
Pressure: 30.31"   Gusts: NA
Location:  38.54°N, 81.93°W
Report Text: KCRW 211454Z 04003KT 10SM FEW150 01/M03 A3031 RMK AO2 SLP270 I3001 T00061028 51002
Loading
Personal Weather Stations






























Interactive Weather Map New forecast layout! Learn more

10-Day Weather Forecast

Advertisements
Track Severe Weather on mobile